createdAt,value
2022-08-28T00:00:59.397Z,87.60
2022-08-28T00:02:01.151Z,87.50
2022-08-28T00:03:03.069Z,87.40
2022-08-28T00:04:07.450Z,87.50
2022-08-28T00:05:11.540Z,87.50
2022-08-28T00:06:13.480Z,87.80
2022-08-28T00:07:15.432Z,88.00
2022-08-28T00:08:17.361Z,87.70
2022-08-28T00:09:19.216Z,87.60
2022-08-28T00:10:22.557Z,87.70
2022-08-28T00:11:24.538Z,87.70
2022-08-28T00:12:27.135Z,87.80
2022-08-28T00:13:28.914Z,88.00
2022-08-28T00:14:31.290Z,87.70
2022-08-28T00:15:36.401Z,88.10
2022-08-28T00:16:38.648Z,88.00
2022-08-28T00:17:40.734Z,88.20
2022-08-28T00:18:42.435Z,88.00
2022-08-28T00:19:44.432Z,88.50
2022-08-28T00:20:47.337Z,88.40
2022-08-28T00:21:49.269Z,88.50
2022-08-28T00:22:51.390Z,88.40
2022-08-28T00:23:53.597Z,88.30
2022-08-28T00:24:55.681Z,88.60
2022-08-28T00:25:57.510Z,88.60
2022-08-28T00:27:18.554Z,88.50
2022-08-28T00:28:24.320Z,88.80
2022-08-28T00:29:26.500Z,89.10
2022-08-28T00:30:36.431Z,89.00
2022-08-28T00:31:41.437Z,89.10
2022-08-28T00:32:43.517Z,89.20
2022-08-28T00:33:47.525Z,88.70
2022-08-28T00:34:51.612Z,89.10
2022-08-28T00:35:54.986Z,89.20
2022-08-28T00:36:56.732Z,89.30
2022-08-28T00:37:58.595Z,89.10
2022-08-28T00:39:01.000Z,89.40
2022-08-28T00:40:02.973Z,89.20
2022-08-28T00:41:05.437Z,89.20
2022-08-28T00:42:07.460Z,89.30
2022-08-28T00:43:11.259Z,89.20
2022-08-28T00:44:21.708Z,89.40
2022-08-28T00:45:25.265Z,90.00
2022-08-28T00:46:27.003Z,89.60
2022-08-28T00:47:28.750Z,89.80
2022-08-28T00:48:30.600Z,89.80
2022-08-28T00:49:35.956Z,89.70
2022-08-28T00:50:56.885Z,89.70
2022-08-28T00:52:08.616Z,90.00
2022-08-28T00:53:13.594Z,89.80
2022-08-28T00:54:15.423Z,89.80
2022-08-28T00:55:22.308Z,89.90
2022-08-28T00:56:25.349Z,89.90
2022-08-28T00:57:38.628Z,89.80
2022-08-28T00:58:43.696Z,90.00
2022-08-28T00:59:45.458Z,90.00
2022-08-28T01:00:49.943Z,90.10
2022-08-28T01:01:58.050Z,90.10
2022-08-28T01:03:00.991Z,90.00
2022-08-28T01:04:06.258Z,90.00
2022-08-28T01:05:09.759Z,90.10
2022-08-28T01:06:15.045Z,89.80
2022-08-28T01:07:17.941Z,89.80
2022-08-28T01:08:20.317Z,89.90
2022-08-28T01:09:24.491Z,89.80
2022-08-28T01:10:29.199Z,90.00
2022-08-28T01:11:32.444Z,90.00
2022-08-28T01:12:35.024Z,90.00
2022-08-28T01:13:39.698Z,90.00
2022-08-28T01:14:45.869Z,90.00
2022-08-28T01:15:48.574Z,90.00
2022-08-28T01:16:55.605Z,89.60
2022-08-28T01:18:05.942Z,89.40
2022-08-28T01:19:18.313Z,89.90
2022-08-28T01:20:24.226Z,89.80
2022-08-28T01:21:54.905Z,89.60
2022-08-28T01:23:17.892Z,90.00
2022-08-28T01:24:20.052Z,90.10
2022-08-28T01:25:24.232Z,89.90
2022-08-28T01:26:28.258Z,89.60
2022-08-28T01:27:30.076Z,89.20
2022-08-28T01:28:31.901Z,89.30
2022-08-28T01:29:33.825Z,89.10
2022-08-28T01:30:36.165Z,89.10
2022-08-28T01:31:40.581Z,89.00
2022-08-28T01:32:47.294Z,88.70
2022-08-28T01:33:49.056Z,88.70
2022-08-28T01:34:50.779Z,88.80
2022-08-28T01:35:52.537Z,89.40
2022-08-28T01:36:54.322Z,88.90
2022-08-28T01:37:56.468Z,88.80
2022-08-28T01:39:07.177Z,88.80
2022-08-28T01:40:11.497Z,88.70
2022-08-28T01:41:14.030Z,88.80
2022-08-28T01:42:16.211Z,88.70
2022-08-28T01:43:23.081Z,88.60
2022-08-28T01:44:26.793Z,88.80
2022-08-28T01:45:28.924Z,88.80
2022-08-28T01:46:31.739Z,89.10
2022-08-28T01:47:33.616Z,89.00
2022-08-28T01:48:37.664Z,88.90
2022-08-28T01:49:39.366Z,88.90
2022-08-28T01:50:41.891Z,89.30
2022-08-28T01:51:43.812Z,89.30
2022-08-28T01:52:45.594Z,89.40
2022-08-28T01:53:47.335Z,89.30
2022-08-28T01:54:49.433Z,89.20
2022-08-28T01:55:52.550Z,89.10
2022-08-28T01:56:55.015Z,89.00
2022-08-28T01:57:56.997Z,89.00
2022-08-28T01:59:01.448Z,89.00
2022-08-28T02:00:03.791Z,89.20
2022-08-28T02:01:17.565Z,89.20
2022-08-28T02:02:19.339Z,89.00
2022-08-28T02:03:21.221Z,89.10
2022-08-28T02:04:31.795Z,89.30
2022-08-28T02:05:35.599Z,89.00
2022-08-28T02:06:37.997Z,88.90
2022-08-28T02:07:39.723Z,89.50
2022-08-28T02:08:42.228Z,89.10
2022-08-28T02:09:44.032Z,88.90
2022-08-28T02:10:46.162Z,89.00
2022-08-28T02:11:47.883Z,88.80
2022-08-28T02:12:49.988Z,88.90
2022-08-28T02:13:54.323Z,88.80
2022-08-28T02:14:57.971Z,88.70
2022-08-28T02:16:00.805Z,88.80
2022-08-28T02:17:02.994Z,88.70
2022-08-28T02:18:05.888Z,88.40
2022-08-28T02:19:07.687Z,88.50
2022-08-28T02:20:10.022Z,88.20
2022-08-28T02:21:12.567Z,88.30
2022-08-28T02:22:14.294Z,88.40
2022-08-28T02:23:16.381Z,88.40
2022-08-28T02:24:18.749Z,88.40
2022-08-28T02:25:21.069Z,88.50
2022-08-28T02:26:23.506Z,88.40
2022-08-28T02:27:25.534Z,88.00
2022-08-28T02:28:27.468Z,88.30
2022-08-28T02:29:29.343Z,87.80
2022-08-28T02:30:31.475Z,88.00
2022-08-28T02:31:33.252Z,88.20
2022-08-28T02:32:35.620Z,88.00
2022-08-28T02:33:39.804Z,88.10
2022-08-28T02:34:43.555Z,87.50
2022-08-28T02:35:45.277Z,87.70
2022-08-28T02:36:47.431Z,87.80
2022-08-28T02:37:49.451Z,87.90
2022-08-28T02:38:56.994Z,88.00
2022-08-28T02:39:59.714Z,87.90
2022-08-28T02:41:04.224Z,88.00
2022-08-28T02:42:06.764Z,87.70
2022-08-28T02:43:08.672Z,87.60
2022-08-28T02:44:10.473Z,87.70
2022-08-28T02:45:14.123Z,87.70
2022-08-28T02:46:16.418Z,87.70
2022-08-28T02:47:18.839Z,87.90
2022-08-28T02:48:20.657Z,87.40
2022-08-28T02:49:23.967Z,87.60
2022-08-28T02:50:26.105Z,87.50
2022-08-28T02:51:33.488Z,87.70
2022-08-28T02:52:37.367Z,87.50
2022-08-28T02:53:40.972Z,87.70
2022-08-28T02:54:42.673Z,87.80
2022-08-28T02:55:45.080Z,88.00
2022-08-28T02:56:46.796Z,87.70
2022-08-28T02:57:48.848Z,87.50
2022-08-28T02:58:50.655Z,87.50
2022-08-28T02:59:52.368Z,87.60
2022-08-28T03:00:54.617Z,87.60
2022-08-28T03:01:56.349Z,87.30
2022-08-28T03:02:58.194Z,87.30
2022-08-28T03:04:03.007Z,87.50
2022-08-28T03:05:05.170Z,87.70
2022-08-28T03:06:08.156Z,87.60
2022-08-28T03:07:13.540Z,87.60
2022-08-28T03:08:15.423Z,87.10
2022-08-28T03:09:17.134Z,87.60
2022-08-28T03:10:19.606Z,87.20
2022-08-28T03:11:21.563Z,86.80
2022-08-28T03:12:24.384Z,87.00
2022-08-28T03:13:27.224Z,87.20
2022-08-28T03:14:29.489Z,87.60
2022-08-28T03:15:31.352Z,87.10
2022-08-28T03:16:34.204Z,87.10
2022-08-28T03:17:37.018Z,87.30
2022-08-28T03:18:39.065Z,87.40
2022-08-28T03:19:40.776Z,87.40
2022-08-28T03:20:42.521Z,87.30
2022-08-28T03:21:44.447Z,87.40
2022-08-28T03:23:04.912Z,87.20
2022-08-28T03:24:07.351Z,87.50
2022-08-28T03:25:10.317Z,86.90
2022-08-28T03:26:15.448Z,87.20
2022-08-28T03:27:17.265Z,87.00
2022-08-28T03:28:19.327Z,86.60
2022-08-28T03:29:21.073Z,87.00
2022-08-28T03:30:23.782Z,86.90
2022-08-28T03:31:28.182Z,86.50
2022-08-28T03:32:31.719Z,87.40
2022-08-28T03:33:33.929Z,87.20
2022-08-28T03:34:35.961Z,87.20
2022-08-28T03:35:37.766Z,87.40
2022-08-28T03:36:39.463Z,87.30
2022-08-28T03:37:41.401Z,87.10
2022-08-28T03:38:43.677Z,87.10
2022-08-28T03:39:45.665Z,87.10
2022-08-28T03:40:47.537Z,86.80
2022-08-28T03:41:49.210Z,86.80
2022-08-28T03:42:53.141Z,86.90
2022-08-28T03:43:57.374Z,87.00
2022-08-28T03:44:59.055Z,86.80
2022-08-28T03:46:04.727Z,87.00
2022-08-28T03:47:06.492Z,86.50
2022-08-28T03:48:08.595Z,87.30
2022-08-28T03:49:11.075Z,87.30
2022-08-28T03:50:14.296Z,87.30
2022-08-28T03:51:24.625Z,87.20
2022-08-28T03:52:31.574Z,87.50
2022-08-28T03:53:33.281Z,87.70
2022-08-28T03:54:35.184Z,87.70
2022-08-28T03:55:36.976Z,87.50
2022-08-28T03:56:42.343Z,87.00
2022-08-28T03:57:44.098Z,87.20
2022-08-28T03:58:45.850Z,87.00
2022-08-28T03:59:48.846Z,87.10
2022-08-28T04:00:51.145Z,87.10
2022-08-28T04:01:52.928Z,87.90
2022-08-28T04:02:54.737Z,87.40
2022-08-28T04:03:56.651Z,87.40
2022-08-28T04:04:58.393Z,87.10
2022-08-28T04:06:00.695Z,87.40
2022-08-28T04:07:02.388Z,87.30
2022-08-28T04:08:04.349Z,87.20
2022-08-28T04:09:06.678Z,87.40
2022-08-28T04:10:08.885Z,87.00
2022-08-28T04:11:10.802Z,87.00
2022-08-28T04:12:13.064Z,87.00
2022-08-28T04:13:17.519Z,87.10
2022-08-28T04:14:19.400Z,86.70
2022-08-28T04:15:21.289Z,87.00
2022-08-28T04:16:23.049Z,86.90
2022-08-28T04:17:25.468Z,87.10
2022-08-28T04:18:29.942Z,87.50
2022-08-28T04:19:31.724Z,87.70
2022-08-28T04:20:33.598Z,87.40
2022-08-28T04:21:35.374Z,87.10
2022-08-28T04:22:37.549Z,87.30
2022-08-28T04:23:43.129Z,86.80
2022-08-28T04:24:44.849Z,87.40
2022-08-28T04:25:46.559Z,87.00
2022-08-28T04:26:48.543Z,86.60
2022-08-28T04:27:51.796Z,87.10
2022-08-28T04:28:56.168Z,87.10
2022-08-28T04:29:58.882Z,86.90
2022-08-28T04:31:01.082Z,86.90
2022-08-28T04:32:03.274Z,86.70
2022-08-28T04:33:06.452Z,87.00
2022-08-28T04:34:11.240Z,86.80
2022-08-28T04:35:13.945Z,86.40
2022-08-28T04:36:18.766Z,86.50
2022-08-28T04:37:20.498Z,86.70
2022-08-28T04:38:24.773Z,86.30
2022-08-28T04:39:26.480Z,86.20
2022-08-28T04:40:28.641Z,86.40
2022-08-28T04:41:30.490Z,86.30
2022-08-28T04:42:32.302Z,86.40
2022-08-28T04:43:34.968Z,86.40
2022-08-28T04:44:36.761Z,86.40
2022-08-28T04:45:43.420Z,86.00
2022-08-28T04:46:45.163Z,85.90
2022-08-28T04:47:50.156Z,85.90
2022-08-28T04:48:52.162Z,85.90
2022-08-28T04:49:55.234Z,86.00
2022-08-28T04:50:56.985Z,86.00
2022-08-28T04:51:58.679Z,85.90
2022-08-28T04:53:00.540Z,85.90
2022-08-28T04:54:03.417Z,86.00
2022-08-28T04:55:05.517Z,85.70
2022-08-28T04:56:10.411Z,85.50
2022-08-28T04:57:12.142Z,86.00
2022-08-28T04:58:14.632Z,86.10
2022-08-28T04:59:16.651Z,86.40
2022-08-28T05:00:18.520Z,86.20
2022-08-28T05:01:24.396Z,86.00
2022-08-28T05:02:26.465Z,86.30
2022-08-28T05:03:28.663Z,86.00
2022-08-28T05:04:30.387Z,86.10
2022-08-28T05:05:32.395Z,86.20
2022-08-28T05:06:34.464Z,85.60
2022-08-28T05:07:36.152Z,85.90
2022-08-28T05:08:37.882Z,85.30
2022-08-28T05:09:39.615Z,84.90
2022-08-28T05:10:42.161Z,85.00
2022-08-28T05:11:45.400Z,85.20
2022-08-28T05:12:47.304Z,84.90
2022-08-28T05:13:50.971Z,85.50
2022-08-28T05:14:56.189Z,85.40
2022-08-28T05:15:58.025Z,85.70
2022-08-28T05:16:59.862Z,85.40
2022-08-28T05:18:01.567Z,85.50
2022-08-28T05:19:03.463Z,85.40
2022-08-28T05:20:06.111Z,86.10
2022-08-28T05:21:21.867Z,85.60
2022-08-28T05:22:23.734Z,85.40
2022-08-28T05:23:25.895Z,85.30
2022-08-28T05:24:27.691Z,85.40
2022-08-28T05:25:29.420Z,84.80
2022-08-28T05:26:31.215Z,84.50
2022-08-28T05:27:32.956Z,84.50
2022-08-28T05:28:34.672Z,83.70
2022-08-28T05:29:36.582Z,84.20
2022-08-28T05:30:40.639Z,83.80
2022-08-28T05:31:42.688Z,83.60
2022-08-28T05:32:45.752Z,84.80
2022-08-28T05:33:49.537Z,83.60
2022-08-28T05:34:51.276Z,84.00
2022-08-28T05:35:52.957Z,83.90
2022-08-28T05:36:54.723Z,83.70
2022-08-28T05:37:56.414Z,84.20
2022-08-28T05:38:58.740Z,84.20
2022-08-28T05:40:00.563Z,84.50
2022-08-28T05:41:03.269Z,84.60
2022-08-28T05:42:05.620Z,84.10
2022-08-28T05:43:07.312Z,84.10
2022-08-28T05:44:12.209Z,83.80
2022-08-28T05:45:13.965Z,84.10
2022-08-28T05:46:17.292Z,83.20
2022-08-28T05:47:21.550Z,83.60
2022-08-28T05:48:23.658Z,83.60
2022-08-28T05:49:25.671Z,83.70
2022-08-28T05:50:27.851Z,84.70
2022-08-28T05:51:29.683Z,84.30
2022-08-28T05:52:31.382Z,84.70
2022-08-28T05:53:35.722Z,84.10
2022-08-28T05:54:37.475Z,83.60
2022-08-28T05:55:41.925Z,83.10
2022-08-28T05:56:45.509Z,83.20
2022-08-28T05:57:47.287Z,83.20
2022-08-28T05:58:49.616Z,82.60
2022-08-28T05:59:51.389Z,82.80
2022-08-28T06:00:53.199Z,82.80
2022-08-28T06:01:55.024Z,82.50
2022-08-28T06:02:56.733Z,82.80
2022-08-28T06:04:05.213Z,82.40
2022-08-28T06:05:07.427Z,82.10
2022-08-28T06:06:10.123Z,82.30
2022-08-28T06:07:13.723Z,82.00
2022-08-28T06:08:15.466Z,82.10
2022-08-28T06:09:29.759Z,82.20
2022-08-28T06:10:31.730Z,82.10
2022-08-28T06:11:34.211Z,81.80
2022-08-28T06:12:36.759Z,82.20
2022-08-28T06:13:38.861Z,81.80
2022-08-28T06:14:40.584Z,81.60
2022-08-28T06:15:44.425Z,82.10
2022-08-28T06:16:48.634Z,82.00
2022-08-28T06:17:50.471Z,82.20
2022-08-28T06:18:52.233Z,82.20
2022-08-28T06:19:54.513Z,82.50
2022-08-28T06:20:56.218Z,82.40
2022-08-28T06:22:00.402Z,82.10
2022-08-28T06:23:02.081Z,81.90
2022-08-28T06:24:04.511Z,82.10
2022-08-28T06:25:08.177Z,81.90
2022-08-28T06:26:10.219Z,81.60
2022-08-28T06:27:11.905Z,80.60
2022-08-28T06:28:18.830Z,79.80
2022-08-28T06:29:22.244Z,80.30
2022-08-28T06:30:26.666Z,80.90
2022-08-28T06:31:33.505Z,81.20
2022-08-28T06:32:35.495Z,81.60
2022-08-28T06:33:37.795Z,81.90
2022-08-28T06:34:39.486Z,80.80
2022-08-28T06:35:48.090Z,81.40
2022-08-28T06:36:53.812Z,80.80
2022-08-28T06:37:55.970Z,80.90
2022-08-28T06:38:58.814Z,80.20
2022-08-28T06:40:00.564Z,80.00
2022-08-28T06:41:02.578Z,80.60
2022-08-28T06:42:05.478Z,80.40
2022-08-28T06:43:08.031Z,80.60
2022-08-28T06:44:12.542Z,79.20
2022-08-28T06:45:14.491Z,78.70
2022-08-28T06:46:16.835Z,79.70
2022-08-28T06:47:18.601Z,79.50
2022-08-28T06:48:23.605Z,79.10
2022-08-28T06:49:25.298Z,78.80
2022-08-28T06:50:27.191Z,80.20
2022-08-28T06:51:29.638Z,79.20
2022-08-28T06:52:31.504Z,79.10
2022-08-28T06:53:33.580Z,79.60
2022-08-28T06:54:35.302Z,79.70
2022-08-28T06:55:37.734Z,79.30
2022-08-28T06:56:39.561Z,79.30
2022-08-28T06:57:41.338Z,79.40
2022-08-28T06:58:50.362Z,80.80
2022-08-28T06:59:57.857Z,79.10
2022-08-28T07:01:10.537Z,79.10
2022-08-28T07:02:14.023Z,79.40
2022-08-28T07:03:15.857Z,78.30
2022-08-28T07:04:19.453Z,78.30
2022-08-28T07:05:21.459Z,77.60
2022-08-28T07:06:23.918Z,78.40
2022-08-28T07:07:31.558Z,78.40
2022-08-28T07:08:36.010Z,79.30
2022-08-28T07:09:37.734Z,79.10
2022-08-28T07:10:39.463Z,79.20
2022-08-28T07:11:44.803Z,78.00
2022-08-28T07:12:48.873Z,78.50
2022-08-28T07:13:52.640Z,78.20
2022-08-28T07:14:54.373Z,78.00
2022-08-28T07:15:56.431Z,78.20
2022-08-28T07:16:58.215Z,77.90
2022-08-28T07:18:00.621Z,76.90
2022-08-28T07:19:04.858Z,77.60
2022-08-28T07:20:07.287Z,77.80
2022-08-28T07:21:12.360Z,77.50
2022-08-28T07:22:14.366Z,77.50
2022-08-28T07:23:16.061Z,77.90
2022-08-28T07:24:18.427Z,77.70
2022-08-28T07:25:20.168Z,76.40
2022-08-28T07:26:24.099Z,77.50
2022-08-28T07:27:25.850Z,76.70
2022-08-28T07:28:27.619Z,76.10
2022-08-28T07:29:29.437Z,76.40
2022-08-28T07:30:31.128Z,76.50
2022-08-28T07:31:32.950Z,76.50
2022-08-28T07:32:34.747Z,76.50
2022-08-28T07:33:37.818Z,76.10
2022-08-28T07:34:41.075Z,76.20
2022-08-28T07:35:45.943Z,75.40
2022-08-28T07:36:48.208Z,75.20
2022-08-28T07:37:49.994Z,75.00
2022-08-28T07:38:51.845Z,75.10
2022-08-28T07:39:55.541Z,75.20
2022-08-28T07:40:57.563Z,74.50
2022-08-28T07:41:59.295Z,74.70
2022-08-28T07:43:19.558Z,75.00
2022-08-28T07:44:40.154Z,74.50
2022-08-28T07:45:42.419Z,74.80
2022-08-28T07:46:45.070Z,74.50
2022-08-28T07:47:47.141Z,74.30
2022-08-28T07:48:49.165Z,74.40
2022-08-28T07:49:53.434Z,74.90
2022-08-28T07:50:55.218Z,74.80
2022-08-28T07:51:57.420Z,74.90
2022-08-28T07:52:59.171Z,75.20
2022-08-28T07:54:01.800Z,74.10
2022-08-28T07:55:05.579Z,73.50
2022-08-28T07:56:07.561Z,73.70
2022-08-28T07:57:10.288Z,73.70
2022-08-28T07:58:13.732Z,74.10
2022-08-28T07:59:17.490Z,74.80
2022-08-28T08:00:21.479Z,73.80
2022-08-28T08:01:23.376Z,73.60
2022-08-28T08:02:25.340Z,74.90
2022-08-28T08:03:30.553Z,74.60
2022-08-28T08:04:32.471Z,74.20
2022-08-28T08:05:34.237Z,73.70
2022-08-28T08:06:37.437Z,71.40
2022-08-28T08:07:39.929Z,72.20
2022-08-28T08:08:45.985Z,72.00
2022-08-28T08:09:47.699Z,71.90
2022-08-28T08:11:04.950Z,72.30
2022-08-28T08:12:10.352Z,72.20
2022-08-28T08:13:12.253Z,72.40
2022-08-28T08:14:14.536Z,73.30
2022-08-28T08:15:17.185Z,73.20
2022-08-28T08:16:21.659Z,73.20
2022-08-28T08:17:23.509Z,73.90
2022-08-28T08:18:25.239Z,73.70
2022-08-28T08:19:26.939Z,73.70
2022-08-28T08:20:28.784Z,72.30
2022-08-28T08:21:30.972Z,72.10
2022-08-28T08:22:33.286Z,71.80
2022-08-28T08:23:35.956Z,72.00
2022-08-28T08:24:37.694Z,72.50
2022-08-28T08:25:39.478Z,71.70
2022-08-28T08:26:46.986Z,71.50
2022-08-28T08:28:00.741Z,71.50
2022-08-28T08:29:02.627Z,71.60
2022-08-28T08:30:04.904Z,71.30
2022-08-28T08:31:21.377Z,71.70
2022-08-28T08:32:23.220Z,71.40
2022-08-28T08:33:24.976Z,70.90
2022-08-28T08:34:26.843Z,71.70
2022-08-28T08:35:28.549Z,71.80
2022-08-28T08:36:33.102Z,70.80
2022-08-28T08:37:34.817Z,71.30
2022-08-28T08:38:37.451Z,70.90
2022-08-28T08:39:41.576Z,71.60
2022-08-28T08:40:43.420Z,71.20
2022-08-28T08:41:51.758Z,69.30
2022-08-28T08:42:57.054Z,68.20
2022-08-28T08:44:01.853Z,69.10
2022-08-28T08:45:04.314Z,70.20
2022-08-28T08:46:07.259Z,69.70
2022-08-28T08:47:33.506Z,69.10
2022-08-28T08:48:37.415Z,69.70
2022-08-28T08:49:43.074Z,69.30
2022-08-28T08:50:44.973Z,69.10
2022-08-28T08:52:25.533Z,68.50
2022-08-28T08:53:43.196Z,69.70
2022-08-28T08:55:01.154Z,68.30
2022-08-28T08:56:05.623Z,69.30
2022-08-28T08:57:10.652Z,69.60
2022-08-28T08:58:22.260Z,68.70
2022-08-28T08:59:30.219Z,69.20
2022-08-28T09:00:52.141Z,69.40
2022-08-28T09:02:07.048Z,69.10
2022-08-28T09:03:32.590Z,69.40
2022-08-28T09:04:46.360Z,69.50
2022-08-28T09:06:14.370Z,68.30
2022-08-28T09:07:18.857Z,68.00
2022-08-28T09:08:33.976Z,67.70
2022-08-28T09:09:40.980Z,67.50
2022-08-28T09:10:51.229Z,68.00
2022-08-28T09:11:59.904Z,67.90
2022-08-28T09:13:28.325Z,67.90
2022-08-28T09:14:57.499Z,68.50
2022-08-28T09:16:00.426Z,68.20
2022-08-28T09:17:04.173Z,69.60
2022-08-28T09:18:23.621Z,69.00
2022-08-28T09:19:25.609Z,67.60
2022-08-28T09:20:32.890Z,68.50
2022-08-28T09:21:40.669Z,68.60
2022-08-28T09:22:46.768Z,68.40
2022-08-28T09:23:48.504Z,67.80
2022-08-28T09:24:51.590Z,67.90
2022-08-28T09:26:05.958Z,67.80
2022-08-28T09:27:29.320Z,67.10
2022-08-28T09:28:37.423Z,67.70
2022-08-28T09:29:47.084Z,66.20
2022-08-28T09:31:12.846Z,65.70
2022-08-28T09:32:29.837Z,66.40
2022-08-28T09:33:47.461Z,66.70
2022-08-28T09:35:24.518Z,66.30
2022-08-28T09:36:31.956Z,66.30
2022-08-28T09:37:36.986Z,66.20
2022-08-28T09:38:39.131Z,66.40
2022-08-28T09:39:40.916Z,66.90
2022-08-28T09:41:01.156Z,65.90
2022-08-28T09:42:40.861Z,66.90
2022-08-28T09:43:46.415Z,67.20
2022-08-28T09:44:52.049Z,66.50
2022-08-28T09:46:20.709Z,66.10
2022-08-28T09:47:46.606Z,66.20
2022-08-28T09:48:52.371Z,65.90
2022-08-28T09:49:54.126Z,66.10
2022-08-28T09:51:03.715Z,66.30
2022-08-28T09:52:23.158Z,67.00
2022-08-28T09:53:28.448Z,66.30
2022-08-28T09:54:41.213Z,66.20
2022-08-28T09:56:04.244Z,66.10
2022-08-28T09:57:06.034Z,67.40
2022-08-28T09:58:08.939Z,66.60
2022-08-28T09:59:14.207Z,65.20
2022-08-28T10:00:16.163Z,65.90
2022-08-28T10:01:33.112Z,65.30
2022-08-28T10:02:47.778Z,65.80
2022-08-28T10:03:58.819Z,65.20
2022-08-28T10:05:09.043Z,64.60
2022-08-28T10:06:32.058Z,64.20
2022-08-28T10:07:44.001Z,66.10
2022-08-28T10:08:59.290Z,65.80
2022-08-28T10:10:36.220Z,65.30
2022-08-28T10:11:52.926Z,64.90
2022-08-28T10:13:21.783Z,64.50
2022-08-28T10:14:35.035Z,64.80
2022-08-28T10:15:49.524Z,64.50
2022-08-28T10:17:29.104Z,64.00
2022-08-28T10:18:42.208Z,63.50
2022-08-28T10:19:52.245Z,63.30
2022-08-28T10:21:22.165Z,62.90
2022-08-28T10:22:28.785Z,61.00
2022-08-28T10:24:00.245Z,60.10
2022-08-28T10:25:17.922Z,60.60
2022-08-28T10:26:40.520Z,61.70
2022-08-28T10:28:01.819Z,61.60
2022-08-28T10:29:21.642Z,62.80
2022-08-28T10:30:26.488Z,61.00
2022-08-28T10:31:50.797Z,60.90
2022-08-28T10:33:27.800Z,61.10
2022-08-28T10:34:52.154Z,59.70
2022-08-28T10:36:07.538Z,60.20
2022-08-28T10:37:56.526Z,59.10
2022-08-28T10:39:13.985Z,59.50
2022-08-28T10:40:23.827Z,60.10
2022-08-28T10:41:33.677Z,59.50
2022-08-28T10:42:40.661Z,59.00
2022-08-28T10:43:48.128Z,59.70
2022-08-28T10:45:04.605Z,58.50
2022-08-28T10:46:21.324Z,58.50
2022-08-28T10:47:26.420Z,57.80
2022-08-28T10:48:37.830Z,57.20
2022-08-28T10:49:46.222Z,58.00
2022-08-28T10:50:53.683Z,58.00
2022-08-28T10:52:04.636Z,57.40
2022-08-28T10:53:10.423Z,58.20
2022-08-28T10:54:32.832Z,58.90
2022-08-28T10:56:02.862Z,58.40
2022-08-28T10:57:39.449Z,59.30
2022-08-28T10:58:41.991Z,58.60
2022-08-28T10:59:48.507Z,59.10
2022-08-28T11:00:51.788Z,59.80
2022-08-28T11:01:53.917Z,59.30
2022-08-28T11:03:00.933Z,59.80
2022-08-28T11:04:08.331Z,58.40
2022-08-28T11:05:11.325Z,59.30
2022-08-28T11:06:22.856Z,58.60
2022-08-28T11:07:49.406Z,58.00
2022-08-28T11:08:57.803Z,58.20
2022-08-28T11:10:21.952Z,57.50
2022-08-28T11:11:43.070Z,57.70
2022-08-28T11:12:45.146Z,57.90
2022-08-28T11:13:52.874Z,57.60
2022-08-28T11:14:54.751Z,55.50
2022-08-28T11:15:57.020Z,55.50
2022-08-28T11:17:08.515Z,55.40
2022-08-28T11:18:13.552Z,55.90
2022-08-28T11:19:29.453Z,55.10
2022-08-28T11:20:31.810Z,55.00
2022-08-28T11:21:36.009Z,53.40
2022-08-28T11:22:55.775Z,53.80
2022-08-28T11:24:06.288Z,54.50
2022-08-28T11:25:26.573Z,54.60
2022-08-28T11:26:47.936Z,54.10
2022-08-28T11:28:17.765Z,55.00
2022-08-28T11:29:57.573Z,54.90
2022-08-28T11:31:05.159Z,56.90
2022-08-28T11:32:36.472Z,57.00
2022-08-28T11:33:45.235Z,56.40
2022-08-28T11:35:01.953Z,57.50
2022-08-28T11:36:19.841Z,57.60
2022-08-28T11:37:47.507Z,57.20
2022-08-28T11:38:52.242Z,57.90
2022-08-28T11:40:16.555Z,57.00
2022-08-28T11:41:24.217Z,57.90
2022-08-28T11:42:34.882Z,57.00
2022-08-28T11:43:39.523Z,57.00
2022-08-28T11:44:45.015Z,57.00
2022-08-28T11:45:47.601Z,57.00
2022-08-28T11:46:51.786Z,57.40
2022-08-28T11:47:56.532Z,57.70
2022-08-28T11:49:28.493Z,56.70
2022-08-28T11:50:31.887Z,57.50
2022-08-28T11:51:56.619Z,56.70
2022-08-28T11:53:09.184Z,56.20
2022-08-28T11:54:39.835Z,56.40
2022-08-28T11:56:02.837Z,56.00
2022-08-28T11:57:28.207Z,56.20
2022-08-28T11:59:07.999Z,55.10
2022-08-28T12:00:36.329Z,54.60
2022-08-28T12:01:39.262Z,54.70
2022-08-28T12:02:41.076Z,54.90
2022-08-28T12:04:06.176Z,54.40
2022-08-28T12:05:15.938Z,54.70
2022-08-28T12:06:52.837Z,54.60
2022-08-28T12:07:55.110Z,55.00
2022-08-28T12:08:56.796Z,54.50
2022-08-28T12:10:04.261Z,53.70
2022-08-28T12:11:06.818Z,54.40
2022-08-28T12:12:13.871Z,53.80
2022-08-28T12:13:44.557Z,54.90
2022-08-28T12:14:46.229Z,53.30
2022-08-28T12:16:05.038Z,52.60
2022-08-28T12:17:08.784Z,53.10
2022-08-28T12:18:13.246Z,52.30
2022-08-28T12:19:28.888Z,53.60
2022-08-28T12:21:04.249Z,53.80
2022-08-28T12:22:14.195Z,55.10
2022-08-28T12:23:43.180Z,53.90
2022-08-28T12:24:50.471Z,53.80
2022-08-28T12:26:04.110Z,53.00
2022-08-28T12:27:07.998Z,53.60
2022-08-28T12:28:27.813Z,53.30
2022-08-28T12:29:37.580Z,53.00
2022-08-28T12:30:59.651Z,53.00
2022-08-28T12:32:28.528Z,53.10
2022-08-28T12:34:04.002Z,53.60
2022-08-28T12:35:20.629Z,53.40
2022-08-28T12:36:28.719Z,53.20
2022-08-28T12:37:53.805Z,52.50
2022-08-28T12:38:58.434Z,54.20
2022-08-28T12:40:06.453Z,53.50
2022-08-28T12:41:17.106Z,53.20
2022-08-28T12:42:30.520Z,52.80
2022-08-28T12:43:35.724Z,52.80
2022-08-28T12:44:48.568Z,53.60
2022-08-28T12:45:56.399Z,54.30
2022-08-28T12:46:59.140Z,53.20
2022-08-28T12:48:08.582Z,53.50
2022-08-28T12:49:29.923Z,53.80
2022-08-28T12:50:36.427Z,54.10
2022-08-28T12:51:38.263Z,54.00
2022-08-28T12:52:49.066Z,52.80
2022-08-28T12:53:56.618Z,52.60
2022-08-28T12:54:58.873Z,52.10
2022-08-28T12:56:00.936Z,53.10
2022-08-28T12:57:29.497Z,51.70
2022-08-28T12:58:34.739Z,52.80
2022-08-28T12:59:45.070Z,52.20
2022-08-28T13:00:55.219Z,52.40
2022-08-28T13:02:04.619Z,51.20
2022-08-28T13:03:07.615Z,51.30
2022-08-28T13:04:33.253Z,52.50
2022-08-28T13:05:40.293Z,52.40
2022-08-28T13:06:42.047Z,51.90
2022-08-28T13:07:49.637Z,51.70
2022-08-28T13:08:59.330Z,51.80
2022-08-28T13:10:18.052Z,52.00
2022-08-28T13:11:20.506Z,52.50
2022-08-28T13:12:55.951Z,52.50
2022-08-28T13:13:59.115Z,53.30
2022-08-28T13:15:01.572Z,53.70
2022-08-28T13:16:05.573Z,53.10
2022-08-28T13:17:07.760Z,53.10
2022-08-28T13:18:10.220Z,53.30
2022-08-28T13:19:31.851Z,52.70
2022-08-28T13:20:36.756Z,53.80
2022-08-28T13:21:55.446Z,52.20
2022-08-28T13:22:58.352Z,51.60
2022-08-28T13:24:20.629Z,51.70
2022-08-28T13:25:25.867Z,52.90
2022-08-28T13:26:34.598Z,52.40
2022-08-28T13:27:36.482Z,52.30
2022-08-28T13:28:43.824Z,52.40
2022-08-28T13:30:14.529Z,52.50
2022-08-28T13:31:30.972Z,52.40
2022-08-28T13:32:36.760Z,52.30
2022-08-28T13:33:39.002Z,52.60
2022-08-28T13:35:01.753Z,52.80
2022-08-28T13:36:21.704Z,53.00
2022-08-28T13:37:45.366Z,52.80
2022-08-28T13:38:47.086Z,52.00
2022-08-28T13:39:48.899Z,52.60
2022-08-28T13:40:58.086Z,52.80
2022-08-28T13:42:07.297Z,52.60
2022-08-28T13:43:11.369Z,52.80
2022-08-28T13:44:26.882Z,52.60
2022-08-28T13:45:31.611Z,53.00
2022-08-28T13:46:44.430Z,53.40
2022-08-28T13:47:46.174Z,51.90
2022-08-28T13:48:47.867Z,52.10
2022-08-28T13:49:49.585Z,52.70
2022-08-28T13:51:10.380Z,52.70
2022-08-28T13:52:13.190Z,53.50
2022-08-28T13:53:17.226Z,53.00
2022-08-28T13:54:19.175Z,52.70
2022-08-28T13:55:21.862Z,52.70
2022-08-28T13:56:25.859Z,51.80
2022-08-28T13:57:27.906Z,52.10
2022-08-28T13:58:29.604Z,52.20
2022-08-28T13:59:31.924Z,52.00
2022-08-28T14:00:38.301Z,52.20
2022-08-28T14:01:58.773Z,51.30
2022-08-28T14:03:19.082Z,52.10
2022-08-28T14:04:20.828Z,51.80
2022-08-28T14:05:24.249Z,51.40
2022-08-28T14:06:31.520Z,51.50
2022-08-28T14:07:33.759Z,52.00
2022-08-28T14:08:35.688Z,52.40
2022-08-28T14:09:37.728Z,51.80
2022-08-28T14:10:40.280Z,52.10
2022-08-28T14:11:42.877Z,50.90
2022-08-28T14:12:46.941Z,51.30
2022-08-28T14:13:55.763Z,52.60
2022-08-28T14:14:57.820Z,52.10
2022-08-28T14:15:59.638Z,52.50
2022-08-28T14:17:01.988Z,51.40
2022-08-28T14:18:03.895Z,51.70
2022-08-28T14:19:06.485Z,52.50